Time;durP1;ratioP1;P1;durP2;ratioP2;P2;SDS_P1;SDS_P2;PMS_P1;PMS_P2;Temp;Humidity;BMP_temperature;BMP_pressure;BME280_temperature;BME280_humidity;BME280_pressure;Samples;Min_cycle;Max_cycle;Signal;HPM_P1;HPM_P2
2022/09/25 00:00:13;;;;;;;15.85;10.32;;;;;;;12.50;100.00;98384.28;5013933;28;20026;-68
2022/09/25 00:02:38;;;;;;;13.45;9.65;;;;;;;12.48;100.00;98382.84;5006332;28;20475;-69
2022/09/25 00:05:04;;;;;;;15.65;10.93;;;;;;;12.45;100.00;98386.00;5004066;28;20061;-68
2022/09/25 00:07:29;;;;;;;16.13;10.98;;;;;;;12.41;100.00;98388.31;5009098;28;20032;-68
2022/09/25 00:09:54;;;;;;;16.48;10.48;;;;;;;12.40;100.00;98386.69;5010051;28;20372;-68
2022/09/25 00:12:20;;;;;;;15.60;11.48;;;;;;;12.39;100.00;98387.75;5004500;28;20040;-68
2022/09/25 00:14:49;;;;;;;16.25;10.70;;;;;;;12.40;100.00;98396.72;5018596;28;20025;-68
2022/09/25 00:17:14;;;;;;;16.33;9.75;;;;;;;12.33;100.00;98379.66;5013296;28;20426;-69
2022/09/25 00:19:51;;;;;;;13.65;9.43;;;;;;;12.40;100.00;98388.56;5010604;28;20072;-68
2022/09/25 00:22:18;;;;;;;15.27;10.00;;;;;;;12.36;100.00;98388.16;5000596;28;20053;-68
2022/09/25 00:24:43;;;;;;;13.98;10.05;;;;;;;12.24;100.00;98371.81;5003218;28;20116;-68
2022/09/25 00:27:09;;;;;;;18.00;12.30;;;;;;;12.32;100.00;98386.97;5020868;28;20454;-68
2022/09/25 00:29:36;;;;;;;17.00;11.25;;;;;;;12.23;100.00;98372.03;5025266;28;20091;-68
2022/09/25 00:32:02;;;;;;;16.92;11.02;;;;;;;12.24;100.00;98374.53;5014576;28;20022;-68
2022/09/25 00:34:27;;;;;;;16.25;11.52;;;;;;;12.25;100.00;98381.59;5012334;28;20036;-68
2022/09/25 00:36:53;;;;;;;22.23;13.60;;;;;;;12.21;100.00;98379.59;5011192;28;20026;-68
2022/09/25 00:39:18;;;;;;;20.77;10.82;;;;;;;12.15;100.00;98369.63;5009956;28;20128;-68
2022/09/25 00:41:43;;;;;;;16.73;11.80;;;;;;;12.19;100.00;98376.25;5013061;28;20030;-68
2022/09/25 00:44:46;;;;;;;18.70;11.70;;;;;;;12.17;100.00;98381.91;5013512;28;20026;-68
2022/09/25 00:47:16;;;;;;;19.70;12.25;;;;;;;12.15;100.00;98375.88;5005416;28;20108;-68
2022/09/25 00:49:42;;;;;;;22.98;12.35;;;;;;;12.21;100.00;98376.88;5016848;28;20026;-68
2022/09/25 00:52:13;;;;;;;18.90;12.65;;;;;;;12.18;100.00;98363.75;5016353;28;20022;-68
2022/09/25 00:54:57;;;;;;;17.27;12.13;;;;;;;12.29;100.00;98373.88;5012290;28;20025;-68
2022/09/25 00:57:25;;;;;;;19.05;11.73;;;;;;;12.25;100.00;98375.34;5010902;28;20022;-68
2022/09/25 00:59:56;;;;;;;17.10;12.05;;;;;;;12.21;100.00;98356.00;5010577;28;20411;-68
2022/09/25 01:02:38;;;;;;;18.00;12.88;;;;;;;12.10;100.00;98347.75;5006938;28;20037;-68
2022/09/25 01:05:07;;;;;;;18.73;12.25;;;;;;;12.30;100.00;98359.25;5006141;28;20394;-68
2022/09/25 01:07:38;;;;;;;21.55;13.35;;;;;;;12.21;100.00;98344.34;5005296;28;20164;-68
2022/09/25 01:10:06;;;;;;;21.52;12.80;;;;;;;12.30;100.00;98361.94;5010937;28;20033;-68
2022/09/25 01:12:37;;;;;;;20.23;12.73;;;;;;;12.30;100.00;98356.53;5014105;28;20018;-68
2022/09/25 01:15:06;;;;;;;21.30;13.25;;;;;;;12.34;100.00;98354.19;5015301;28;20026;-68
2022/09/25 01:17:39;;;;;;;21.50;13.77;;;;;;;12.32;100.00;98359.03;5017088;28;20033;-68
2022/09/25 01:20:28;;;;;;;21.58;13.38;;;;;;;12.36;100.00;98361.03;5009322;28;20285;-68
2022/09/25 01:23:11;;;;;;;23.90;13.85;;;;;;;12.34;100.00;98351.47;5000699;28;20036;-69
2022/09/25 01:26:06;;;;;;;21.33;13.45;;;;;;;12.34;100.00;98349.59;5009803;28;20402;-68
2022/09/25 01:29:10;;;;;;;19.17;12.73;;;;;;;12.26;100.00;98344.47;5014676;28;20033;-68
2022/09/25 01:32:02;;;;;;;18.48;12.63;;;;;;;12.27;100.00;98338.00;5007254;28;20030;-68
2022/09/25 01:34:45;;;;;;;21.73;13.20;;;;;;;12.20;100.00;98345.38;5009726;28;20033;-68
2022/09/25 01:37:22;;;;;;;22.20;14.07;;;;;;;12.12;100.00;98345.66;5002752;28;20026;-68
2022/09/25 01:40:16;;;;;;;22.27;14.30;;;;;;;12.16;100.00;98363.16;5001803;28;20431;-68
2022/09/25 01:42:48;;;;;;;25.35;14.25;;;;;;;12.11;100.00;98346.72;5011944;28;20450;-68
2022/09/25 01:45:24;;;;;;;25.20;14.02;;;;;;;12.18;100.00;98356.47;5011024;28;20029;-68
2022/09/25 01:47:51;;;;;;;20.35;13.52;;;;;;;12.15;100.00;98359.59;5006036;28;20058;-68
2022/09/25 01:50:34;;;;;;;21.58;13.73;;;;;;;12.15;100.00;98365.00;5010651;28;20523;-68
2022/09/25 01:53:06;;;;;;;21.20;12.80;;;;;;;12.13;100.00;98360.88;5012278;28;20034;-68
2022/09/25 01:55:35;;;;;;;23.17;13.68;;;;;;;12.05;100.00;98356.56;5010615;28;20451;-68
2022/09/25 01:58:04;;;;;;;;;;;;;;;12.09;100.00;98359.69;5008179;28;20144;-68
2022/09/25 02:00:31;;;;;;;18.73;12.82;;;;;;;12.05;100.00;98360.13;5014692;28;19917;-68
2022/09/25 02:03:10;;;;;;;22.05;12.40;;;;;;;12.02;100.00;98355.13;5012855;28;20092;-68
2022/09/25 02:05:47;;;;;;;19.80;12.43;;;;;;;12.12;100.00;98364.66;5007013;28;20026;-68
2022/09/25 02:08:19;;;;;;;19.95;11.63;;;;;;;12.13;100.00;98361.72;5007474;28;20041;-68
2022/09/25 02:10:50;;;;;;;22.85;12.68;;;;;;;12.09;100.00;98351.53;5011772;28;20033;-68
2022/09/25 02:13:17;;;;;;;18.08;12.27;;;;;;;12.15;100.00;98359.59;5015555;28;20075;-68
2022/09/25 02:15:56;;;;;;;18.80;11.93;;;;;;;12.17;100.00;98357.50;5011230;28;20125;-68
2022/09/25 02:21:29;;;;;;;16.63;11.30;;;;;;;12.17;100.00;98356.66;4995965;28;20117;-68
2022/09/25 02:24:10;;;;;;;20.50;13.10;;;;;;;12.30;100.00;98355.69;5009146;28;20041;-68
2022/09/25 02:26:37;;;;;;;19.95;12.68;;;;;;;12.28;100.00;98350.50;5007793;28;20096;-68
2022/09/25 02:29:03;;;;;;;20.08;12.63;;;;;;;12.27;100.00;98356.97;5013749;28;20038;-68
2022/09/25 02:31:39;;;;;;;22.63;13.48;;;;;;;12.18;100.00;98340.19;5016053;28;20033;-69
2022/09/25 02:34:04;;;;;;;21.02;13.75;;;;;;;12.22;100.00;98330.53;5013889;28;20529;-68
2022/09/25 02:36:31;;;;;;;19.15;13.02;;;;;;;12.31;100.00;98344.59;5015012;28;20037;-68
2022/09/25 02:38:56;;;;;;;23.67;14.43;;;;;;;12.41;100.00;98341.38;5011444;28;20112;-68
2022/09/25 02:41:46;;;;;;;29.27;16.10;;;;;;;12.31;100.00;98341.91;5011250;28;20147;-68
2022/09/25 02:44:27;;;;;;;24.63;15.20;;;;;;;12.28;100.00;98347.78;5016948;28;20037;-68
2022/09/25 02:47:02;;;;;;;28.60;15.90;;;;;;;12.24;100.00;98341.16;5013729;28;20026;-68
2022/09/25 02:49:33;;;;;;;20.27;13.13;;;;;;;12.25;100.00;98345.53;5013209;28;20033;-68
2022/09/25 02:52:52;;;;;;;22.77;13.93;;;;;;;12.17;100.00;98341.22;5010658;28;20156;-68
2022/09/25 02:55:30;;;;;;;22.20;13.50;;;;;;;12.08;100.00;98342.59;5012389;28;20064;-68
2022/09/25 02:58:03;;;;;;;24.65;13.80;;;;;;;11.96;100.00;98345.19;5010456;28;20039;-69
2022/09/25 03:00:29;;;;;;;24.45;13.65;;;;;;;11.89;100.00;98340.88;5011141;28;20022;-68
2022/09/25 03:02:58;;;;;;;22.08;12.70;;;;;;;11.82;100.00;98336.34;5008737;28;20037;-68
2022/09/25 03:05:25;;;;;;;19.25;12.85;;;;;;;11.83;100.00;98350.72;5014595;28;20026;-68
2022/09/25 03:10:37;;;;;;;21.95;13.57;;;;;;;11.87;100.00;98357.38;5014653;28;20045;-68
2022/09/25 03:13:31;;;;;;;24.70;14.98;;;;;;;11.91;100.00;98355.88;5010660;28;20018;-68
2022/09/25 03:16:09;;;;;;;24.05;13.70;;;;;;;11.91;100.00;98350.44;5004077;28;20030;-68
2022/09/25 03:18:34;;;;;;;22.48;14.25;;;;;;;11.97;100.00;98336.03;5027372;28;20040;-68
2022/09/25 03:20:59;;;;;;;25.05;15.27;;;;;;;12.03;100.00;98345.97;5019699;28;20022;-68
2022/09/25 03:23:24;;;;;;;19.85;13.57;;;;;;;12.14;100.00;98347.09;5011621;28;20646;-68
2022/09/25 03:25:53;;;;;;;24.30;14.52;;;;;;;12.06;100.00;98329.25;5029917;28;20018;-68
2022/09/25 03:28:19;;;;;;;25.42;14.43;;;;;;;12.03;100.00;98320.75;5013738;28;20034;-68
2022/09/25 03:30:55;;;;;;;21.77;14.13;;;;;;;12.09;100.00;98336.09;5012132;28;20041;-68
2022/09/25 03:33:20;;;;;;;22.42;14.05;;;;;;;12.01;100.00;98331.78;5006805;28;20029;-68
2022/09/25 03:35:45;;;;;;;21.85;14.57;;;;;;;12.04;100.00;98334.06;5015467;28;20110;-68
2022/09/25 03:38:11;;;;;;;23.60;15.00;;;;;;;12.13;100.00;98336.47;5015308;28;20036;-68
2022/09/25 03:40:36;;;;;;;25.13;15.70;;;;;;;12.10;100.00;98332.31;5013042;28;20022;-68
2022/09/25 03:43:02;;;;;;;25.50;15.30;;;;;;;12.10;100.00;98337.75;5017221;28;20104;-68
2022/09/25 03:45:27;;;;;;;29.15;15.70;;;;;;;12.07;100.00;98347.16;5010724;28;20054;-68
2022/09/25 03:47:53;;;;;;;26.33;15.00;;;;;;;12.07;100.00;98343.63;5009896;28;20125;-68
2022/09/25 03:50:18;;;;;;;25.08;15.38;;;;;;;12.08;100.00;98339.88;5017329;28;20029;-68
2022/09/25 03:52:43;;;;;;;24.17;15.88;;;;;;;12.04;100.00;98342.19;5009495;28;20026;-68
2022/09/25 03:55:10;;;;;;;28.77;15.85;;;;;;;12.08;100.00;98342.59;5011546;28;20033;-68
2022/09/25 03:57:36;;;;;;;26.55;15.07;;;;;;;12.01;100.00;98345.34;5017890;28;20026;-69
2022/09/25 04:00:02;;;;;;;26.33;14.75;;;;;;;12.05;100.00;98341.16;5028623;28;20124;-68
2022/09/25 04:02:28;;;;;;;24.88;14.93;;;;;;;12.13;100.00;98339.19;5030899;28;20037;-68
2022/09/25 04:04:54;;;;;;;22.15;14.45;;;;;;;11.96;100.00;98326.22;5034695;28;20029;-68
2022/09/25 04:07:20;;;;;;;33.20;16.05;;;;;;;11.97;100.00;98332.47;5030272;28;20018;-69
2022/09/25 04:09:45;;;;;;;24.73;14.90;;;;;;;11.97;100.00;98332.47;5032679;28;20723;-69
2022/09/25 04:12:11;;;;;;;22.10;15.20;;;;;;;11.93;100.00;98339.41;5030395;28;20026;-68
2022/09/25 04:14:36;;;;;;;24.98;15.68;;;;;;;11.92;100.00;98343.13;5031838;28;20037;-68
2022/09/25 04:17:01;;;;;;;26.20;15.38;;;;;;;11.93;100.00;98348.34;5029190;28;20013;-68
2022/09/25 04:19:27;;;;;;;25.17;15.00;;;;;;;11.90;100.00;98337.97;5029566;28;20084;-68
2022/09/25 04:21:52;;;;;;;25.63;14.68;;;;;;;11.97;100.00;98340.59;5009025;28;20576;-68
2022/09/25 04:27:01;;;;;;;23.67;14.82;;;;;;;11.90;100.00;98337.97;5006827;28;20550;-68
2022/09/25 04:29:26;;;;;;;22.88;14.85;;;;;;;11.94;100.00;98344.56;5012143;28;20057;-68
2022/09/25 04:34:36;;;;;;;23.27;14.10;;;;;;;11.97;100.00;98337.88;5011630;28;20045;-68
2022/09/25 04:37:02;;;;;;;27.65;14.98;;;;;;;11.99;100.00;98349.34;5013176;28;20022;-68
2022/09/25 04:39:27;;;;;;;23.75;14.93;;;;;;;12.00;100.00;98345.59;5012018;28;20025;-69
2022/09/25 04:41:53;;;;;;;24.20;14.57;;;;;;;11.98;100.00;98348.50;5008430;28;20026;-68
2022/09/25 04:44:18;;;;;;;23.65;14.50;;;;;;;11.94;100.00;98341.03;5002608;28;20502;-68
2022/09/25 04:46:43;;;;;;;23.95;15.40;;;;;;;11.89;100.00;98339.00;5007813;28;20038;-68
2022/09/25 04:49:08;;;;;;;25.42;15.40;;;;;;;11.88;100.00;98342.78;5015350;28;20026;-68
2022/09/25 04:51:34;;;;;;;25.25;15.48;;;;;;;11.89;100.00;98339.00;5013637;28;20068;-68
2022/09/25 04:53:59;;;;;;;21.85;14.60;;;;;;;11.93;100.00;98344.81;5006152;28;20037;-68
2022/09/25 04:56:25;;;;;;;25.30;14.98;;;;;;;11.91;100.00;98342.31;5007548;28;20116;-68
2022/09/25 04:58:50;;;;;;;27.52;15.18;;;;;;;11.91;100.00;98333.38;5012005;28;20045;-68
2022/09/25 05:01:18;;;;;;;24.73;15.48;;;;;;;11.91;100.00;98338.78;5010583;28;20032;-68
2022/09/25 05:03:47;;;;;;;21.17;13.95;;;;;;;11.96;100.00;98337.06;5012519;28;20083;-68
2022/09/25 05:06:12;;;;;;;;;;;;;;;11.93;100.00;98342.09;5008208;28;20398;-68
2022/09/25 05:08:38;;;;;;;25.37;15.73;;;;;;;11.94;100.00;98341.88;5011159;28;19917;-69
2022/09/25 05:11:03;;;;;;;25.02;15.60;;;;;;;11.99;100.00;98343.91;5003925;28;20281;-68
2022/09/25 05:13:29;;;;;;;24.60;15.02;;;;;;;11.95;100.00;98337.31;5006944;28;20053;-68
2022/09/25 05:15:55;;;;;;;23.27;15.18;;;;;;;11.93;100.00;98332.09;5010312;28;20036;-68
2022/09/25 05:18:22;;;;;;;25.48;15.10;;;;;;;11.92;100.00;98332.28;5011163;28;20390;-68
2022/09/25 05:20:49;;;;;;;25.17;15.75;;;;;;;11.91;100.00;98331.47;5009410;28;20080;-68
2022/09/25 05:23:15;;;;;;;24.73;16.33;;;;;;;11.88;100.00;98333.81;5020369;23;20009;-71
2022/09/25 05:25:40;;;;;;;24.35;15.10;;;;;;;11.76;100.00;98322.81;5043392;28;22665;-70
2022/09/25 05:28:06;;;;;;;27.55;16.80;;;;;;;11.69;100.00;98312.06;5039659;28;20120;-69
2022/09/25 05:30:33;;;;;;;28.13;16.65;;;;;;;11.80;100.00;98324.88;5032494;28;20066;-70
2022/09/25 05:32:59;;;;;;;28.23;18.33;;;;;;;11.81;100.00;98341.97;5030539;28;20032;-70
2022/09/25 05:35:27;;;;;;;26.30;16.70;;;;;;;11.81;100.00;98334.66;5028537;28;20033;-72
2022/09/25 05:37:52;;;;;;;27.77;16.50;;;;;;;11.76;100.00;98312.84;5030130;28;20033;-71
2022/09/25 05:40:19;;;;;;;24.92;16.70;;;;;;;11.91;100.00;98331.47;5026852;28;20025;-71
2022/09/25 05:42:46;;;;;;;24.13;15.57;;;;;;;11.71;100.00;98304.56;5026023;28;20021;-69
2022/09/25 05:45:12;;;;;;;24.33;15.90;;;;;;;11.93;100.00;98333.97;5021797;28;20030;-72
2022/09/25 05:47:39;;;;;;;25.98;16.40;;;;;;;11.92;100.00;98333.16;5022095;28;20919;-70
2022/09/25 05:50:06;;;;;;;28.15;16.10;;;;;;;11.87;100.00;98316.72;5023990;28;20022;-69
2022/09/25 05:52:31;;;;;;;28.08;17.13;;;;;;;11.91;100.00;98336.91;5024456;28;20402;-71
2022/09/25 05:54:56;;;;;;;30.27;16.88;;;;;;;11.88;100.00;98325.69;5030153;28;20047;-70
2022/09/25 05:57:22;;;;;;;26.45;16.23;;;;;;;11.89;100.00;98341.72;5034907;28;20049;-72
2022/09/25 05:59:48;;;;;;;26.83;16.75;;;;;;;11.88;100.00;98336.53;5030815;28;20036;-70
2022/09/25 06:02:14;;;;;;;24.33;16.38;;;;;;;11.95;100.00;98329.16;5030919;28;20541;-70
2022/09/25 06:04:40;;;;;;;24.50;16.05;;;;;;;12.01;100.00;98342.63;5033907;28;20141;-70
2022/09/25 06:07:05;;;;;;;30.48;17.55;;;;;;;11.84;100.00;98315.25;5031826;28;20187;-70
2022/09/25 06:09:30;;;;;;;29.23;16.98;;;;;;;11.97;100.00;98340.59;5039514;28;20142;-70
2022/09/25 06:11:56;;;;;;;29.17;17.08;;;;;;;12.02;100.00;98338.84;5028875;28;20032;-70
2022/09/25 06:14:21;;;;;;;29.63;19.08;;;;;;;11.99;100.00;98341.19;5030521;28;20128;-69
2022/09/25 06:16:49;;;;;;;27.40;17.70;;;;;;;11.89;100.00;98311.88;5033668;28;20021;-71
2022/09/25 06:19:14;;;;;;;26.33;16.73;;;;;;;12.13;100.00;98317.47;5035172;28;20132;-70
2022/09/25 06:21:40;;;;;;;25.30;18.02;;;;;;;12.22;100.00;98337.84;5037200;28;20130;-72
2022/09/25 06:24:05;;;;;;;29.70;16.92;;;;;;;12.22;100.00;98335.13;5027238;28;20084;-70
2022/09/25 06:26:32;;;;;;;25.23;15.63;;;;;;;12.14;100.00;98322.69;5042040;28;20055;-71
2022/09/25 06:28:59;;;;;;;25.75;16.58;;;;;;;12.00;100.00;98291.38;5030930;28;20057;-70
2022/09/25 06:31:25;;;;;;;22.92;14.73;;;;;;;12.23;100.00;98323.22;5033114;28;20021;-70
2022/09/25 06:33:50;;;;;;;22.40;14.85;;;;;;;12.36;100.00;98325.78;5031300;28;20033;-70
2022/09/25 06:36:16;;;;;;;23.45;15.68;;;;;;;12.34;100.00;98311.63;5042300;28;20483;-70
2022/09/25 06:38:41;;;;;;;24.25;16.02;;;;;;;12.29;100.00;98308.78;5031142;28;20029;-68
2022/09/25 06:41:06;;;;;;;27.25;15.55;;;;;;;12.17;100.00;98288.88;5033000;28;20478;-72
2022/09/25 06:43:32;;;;;;;28.65;14.32;;;;;;;12.50;100.00;98313.72;5034562;28;20471;-72
2022/09/25 06:46:02;;;;;;;22.42;14.10;;;;;;;12.47;100.00;98316.03;5033991;28;20033;-73
2022/09/25 06:48:29;;;;;;;22.25;14.30;;;;;;;12.58;100.00;98328.03;5031147;28;20075;-72
2022/09/25 06:50:56;;;;;;;20.05;13.52;;;;;;;12.65;100.00;98320.63;5028195;28;20036;-72
2022/09/25 06:53:23;;;;;;;21.35;13.52;;;;;;;12.54;100.00;98313.25;5029984;28;20017;-72
2022/09/25 06:55:49;;;;;;;22.17;12.93;;;;;;;12.71;100.00;98331.41;5030960;28;20437;-69
2022/09/25 06:58:18;;;;;;;20.70;13.20;;;;;;;12.81;100.00;98330.88;5046432;28;20039;-69
2022/09/25 07:00:47;;;;;;;18.30;11.90;;;;;;;12.81;100.00;98325.44;5026009;28;20021;-69
2022/09/25 07:06:02;;;;;;;18.30;11.93;;;;;;;12.90;100.00;98317.78;5026112;28;20040;-70
2022/09/25 07:08:28;;;;;;;18.25;11.38;;;;;;;12.89;100.00;98326.97;5028577;28;20108;-69
2022/09/25 07:10:55;;;;;;;16.73;11.15;;;;;;;12.76;100.00;98310.88;5028277;28;20037;-73
2022/09/25 07:13:23;;;;;;;18.80;11.45;;;;;;;12.88;100.00;98322.63;5032490;28;20092;-73
2022/09/25 07:16:13;;;;;;;20.73;11.55;;;;;;;12.84;100.00;98333.13;5020715;28;20029;-71
2022/09/25 07:18:38;;;;;;;18.65;12.20;;;;;;;12.78;100.00;98333.19;5027836;28;20443;-72
2022/09/25 07:21:15;;;;;;;17.13;11.27;;;;;;;12.84;100.00;98330.41;5029297;28;20116;-70
2022/09/25 07:23:41;;;;;;;18.33;11.23;;;;;;;12.78;100.00;98312.31;4993802;28;1070368;-70
2022/09/25 07:26:20;;;;;;;19.35;12.13;;;;;;;12.98;100.00;98336.47;5030532;28;20033;-70
2022/09/25 07:28:46;;;;;;;17.38;11.77;;;;;;;13.14;100.00;98332.28;5029125;28;20029;-70
2022/09/25 07:31:17;;;;;;;16.17;9.43;;;;;;;13.13;100.00;98333.34;5032046;28;20079;-74
2022/09/25 07:33:42;;;;;;;17.83;10.60;;;;;;;13.17;100.00;98312.78;5032488;28;20032;-71
2022/09/25 07:36:08;;;;;;;15.27;9.15;;;;;;;13.26;100.00;98310.59;5028121;28;20018;-70
2022/09/25 07:38:35;;;;;;;14.95;9.60;;;;;;;13.46;100.00;98327.41;5032764;28;20039;-70
2022/09/25 07:41:01;;;;;;;15.65;9.77;;;;;;;13.40;100.00;98295.75;5041576;28;20032;-71
2022/09/25 07:43:27;;;;;;;13.13;8.65;;;;;;;13.52;100.00;98309.38;5033848;28;20057;-71
2022/09/25 07:45:52;;;;;;;11.50;7.82;;;;;;;13.59;100.00;98326.38;5043555;28;20068;-70
2022/09/25 07:48:20;;;;;;;14.77;8.15;;;;;;;13.66;100.00;98318.94;5044330;28;20049;-70
2022/09/25 07:50:48;;;;;;;17.65;8.15;;;;;;;13.81;100.00;98318.50;5024759;28;20156;-70
2022/09/25 07:53:13;;;;;;;13.98;8.60;;;;;;;13.45;100.00;98324.94;5026678;28;20096;-73
2022/09/25 07:55:38;;;;;;;14.18;8.07;;;;;;;13.47;100.00;98315.50;5030992;28;20108;-73
2022/09/25 07:58:04;;;;;;;13.68;8.07;;;;;;;13.34;100.00;98313.81;5033601;28;20036;-69
2022/09/25 08:00:29;;;;;;;12.27;7.65;;;;;;;13.53;100.00;98308.31;5031663;28;20071;-69
2022/09/25 08:02:56;;;;;;;12.55;8.18;;;;;;;13.51;100.00;98313.13;5032107;28;20112;-67
2022/09/25 08:05:21;;;;;;;14.13;8.90;;;;;;;13.71;100.00;98326.41;5029421;28;20021;-70
2022/09/25 08:07:47;;;;;;;13.80;8.10;;;;;;;13.85;100.00;98325.09;5032535;28;20037;-70
2022/09/25 08:10:12;;;;;;;10.77;7.70;;;;;;;13.98;100.00;98311.25;5027609;28;20021;-71
2022/09/25 08:12:39;;;;;;;15.88;8.38;;;;;;;13.89;100.00;98314.59;5047231;28;20368;-68
2022/09/25 08:15:06;;;;;;;12.20;8.27;;;;;;;14.14;100.00;98315.16;5021653;28;20014;-71
2022/09/25 08:17:31;;;;;;;10.45;7.65;;;;;;;14.05;100.00;98313.88;5029811;28;20033;-69
2022/09/25 08:19:57;;;;;;;12.63;7.82;;;;;;;13.96;100.00;98299.81;5028580;28;20486;-69
2022/09/25 08:22:22;;;;;;;9.63;7.47;;;;;;;13.90;100.00;98302.63;5027047;28;20164;-68
2022/09/25 08:24:48;;;;;;;13.32;7.68;;;;;;;13.72;100.00;98309.84;5042040;28;20026;-69
2022/09/25 08:27:13;;;;;;;12.02;8.05;;;;;;;13.61;100.00;98323.44;5034088;28;20025;-69
2022/09/25 08:29:39;;;;;;;12.35;7.78;;;;;;;13.72;100.00;98328.03;5036548;28;20174;-71
2022/09/25 08:32:05;;;;;;;11.90;7.07;;;;;;;13.90;100.00;98316.25;5027323;28;20028;-71
2022/09/25 08:34:30;;;;;;;11.63;6.97;;;;;;;13.94;100.00;98322.88;5026359;28;20029;-71
2022/09/25 08:36:57;;;;;;;9.75;7.18;;;;;;;13.85;100.00;98327.81;5030360;28;20036;-70
2022/09/25 08:39:22;;;;;;;10.20;7.00;;;;;;;13.84;100.00;98325.34;5027322;28;20025;-70
2022/09/25 08:41:55;;;;;;;11.27;7.28;;;;;;;13.98;100.00;98324.03;5029993;28;20387;-71
2022/09/25 08:44:23;;;;;;;11.18;7.15;;;;;;;14.20;100.00;98316.94;5027891;28;20021;-71
2022/09/25 08:49:44;;;;;;;11.80;6.35;;;;;;;14.83;100.00;98314.44;5032492;28;20262;-68
2022/09/25 08:52:16;;;;;;;10.63;6.03;;;;;;;14.74;100.00;98305.81;5026971;28;20032;-68
2022/09/25 08:54:41;;;;;;;8.50;5.60;;;;;;;14.94;100.00;98310.00;5021909;28;20120;-68
2022/09/25 08:57:39;;;;;;;11.00;6.18;;;;;;;15.15;100.00;98305.75;5029001;28;20109;-69
2022/09/25 09:00:13;;;;;;;7.05;5.45;;;;;;;15.36;100.00;98307.75;5013392;28;20128;-67
2022/09/25 09:02:45;;;;;;;9.15;5.43;;;;;;;15.50;100.00;98309.09;5022624;28;20383;-69
2022/09/25 09:05:30;;;;;;;8.10;5.65;;;;;;;15.63;100.00;98307.09;5027484;28;20124;-68
2022/09/25 09:08:01;;;;;;;8.82;6.07;;;;;;;15.30;100.00;98287.78;5023534;28;20044;-68
2022/09/25 09:10:32;;;;;;;11.88;5.57;;;;;;;15.48;100.00;98304.94;5030492;28;20025;-68
2022/09/25 09:13:33;;;;;;;9.02;5.53;;;;;;;15.41;100.00;98305.13;5029721;28;20053;-69
2022/09/25 09:16:08;;;;;;;8.10;5.10;;;;;;;15.42;100.00;98303.22;4987874;28;20383;-68
2022/09/25 09:18:38;;;;;;;7.68;5.13;;;;;;;15.23;100.00;98300.72;5024052;28;20026;-72
2022/09/25 09:21:11;;;;;;;11.20;5.70;;;;;;;15.02;100.00;98310.44;5029104;28;20091;-72
2022/09/25 09:23:52;;;;;;;8.73;5.63;;;;;;;15.00;100.00;98309.84;5024231;28;20457;-71
2022/09/25 09:26:32;;;;;;;11.30;6.10;;;;;;;14.94;100.00;98308.09;5029505;28;20403;-71
2022/09/25 09:29:02;;;;;;;8.80;6.05;;;;;;;15.12;100.00;98307.06;5032215;28;20095;-70
2022/09/25 09:31:58;;;;;;;11.15;6.45;;;;;;;15.36;100.00;98306.94;5028540;28;20032;-72
2022/09/25 09:35:00;;;;;;;8.10;5.78;;;;;;;15.68;100.00;98304.47;5030600;28;20047;-71
2022/09/25 09:37:48;;;;;;;9.20;5.50;;;;;;;15.75;100.00;98299.69;5021455;28;20018;-71
2022/09/25 09:40:41;;;;;;;8.80;6.03;;;;;;;15.53;100.00;98297.69;5025423;28;20056;-71
2022/09/25 09:43:37;;;;;;;8.25;5.13;;;;;;;15.11;100.00;98306.22;5023473;28;20022;-71
2022/09/25 09:46:12;;;;;;;9.10;5.68;;;;;;;15.25;100.00;98293.13;5049149;28;20683;-72
2022/09/25 09:49:04;;;;;;;10.93;6.28;;;;;;;15.24;100.00;98299.66;5023624;28;20076;-71
2022/09/25 09:51:42;;;;;;;9.27;6.00;;;;;;;15.11;100.00;98284.44;5029361;28;20022;-71
2022/09/25 09:54:16;;;;;;;8.98;5.72;;;;;;;15.05;100.00;98307.22;5025568;28;20056;-71
2022/09/25 09:56:47;;;;;;;7.00;5.25;;;;;;;15.03;100.00;98298.44;5024892;28;20033;-71
2022/09/25 09:59:23;;;;;;;7.70;5.28;;;;;;;14.79;100.00;98302.38;5024981;28;20402;-65
2022/09/25 10:02:22;;;;;;;8.18;5.07;;;;;;;14.60;100.00;98293.56;5041727;28;20088;-67
2022/09/25 10:04:49;;;;;;;8.48;4.82;;;;;;;14.82;100.00;98293.69;5013126;28;20041;-70
2022/09/25 10:07:17;;;;;;;9.25;4.65;;;;;;;14.78;100.00;98298.00;5027185;28;20548;-71
2022/09/25 10:09:43;;;;;;;6.57;4.53;;;;;;;14.48;100.00;98293.53;5025576;28;20478;-70
2022/09/25 10:12:19;;;;;;;7.53;5.13;;;;;;;14.57;100.00;98300.31;5023938;28;20091;-71
2022/09/25 10:14:46;;;;;;;6.43;4.55;;;;;;;14.75;100.00;98306.63;5021774;28;20029;-71
2022/09/25 10:17:12;;;;;;;7.07;4.95;;;;;;;14.65;100.00;98289.03;5025976;28;20029;-71
2022/09/25 10:19:47;;;;;;;7.20;4.60;;;;;;;14.61;100.00;98301.47;5041929;28;20017;-71
2022/09/25 10:22:19;;;;;;;7.95;4.82;;;;;;;14.86;100.00;98282.09;5040503;28;20029;-71
2022/09/25 10:24:53;;;;;;;5.55;4.10;;;;;;;15.15;100.00;98303.03;5029999;28;20525;-70
2022/09/25 10:27:44;;;;;;;5.55;4.47;;;;;;;15.27;100.00;98298.31;5017540;28;20053;-71
2022/09/25 10:30:09;;;;;;;6.78;4.53;;;;;;;15.88;100.00;98282.16;5022058;28;20034;-71
2022/09/25 10:33:10;;;;;;;9.52;4.35;;;;;;;16.51;100.00;98288.19;5027264;28;20376;-71
2022/09/25 10:35:40;;;;;;;5.22;4.15;;;;;;;16.32;100.00;98283.06;5027935;28;20068;-71
2022/09/25 10:38:24;;;;;;;6.72;4.25;;;;;;;16.89;100.00;98286.47;5026930;28;20029;-70
2022/09/25 10:41:07;;;;;;;6.93;3.85;;;;;;;17.23;99.90;98267.94;5018618;28;20033;-71
2022/09/25 10:43:33;;;;;;;6.45;3.63;;;;;;;17.46;90.75;98277.72;5026729;28;20034;-72
2022/09/25 10:46:11;;;;;;;6.15;3.83;;;;;;;17.12;95.15;98280.69;5035844;28;20112;-70
2022/09/25 10:51:22;;;;;;;12.95;3.70;;;;;;;17.11;98.92;98280.94;5024770;28;20403;-71
2022/09/25 10:54:08;;;;;;;5.10;3.45;;;;;;;17.42;96.40;98282.88;5033495;28;20033;-71
2022/09/25 10:56:37;;;;;;;5.13;3.53;;;;;;;17.37;98.22;98266.44;5031155;28;20030;-70
2022/09/25 10:59:13;;;;;;;5.95;3.40;;;;;;;17.24;100.00;98283.28;5035394;28;20017;-71
2022/09/25 11:01:42;;;;;;;5.38;3.15;;;;;;;16.78;100.00;98280.06;5031264;28;20041;-71
2022/09/25 11:04:28;;;;;;;4.47;3.58;;;;;;;16.23;100.00;98289.19;5036001;28;20036;-71
2022/09/25 11:06:59;;;;;;;4.60;3.17;;;;;;;16.02;100.00;98282.63;5043807;28;20033;-71
2022/09/25 11:09:27;;;;;;;6.30;3.50;;;;;;;15.58;100.00;98294.22;5042666;28;20056;-71
2022/09/25 11:12:06;;;;;;;6.45;3.95;;;;;;;15.43;100.00;98275.72;5040248;28;20086;-71
2022/09/25 11:14:34;;;;;;;6.50;4.07;;;;;;;15.12;100.00;98285.28;5037194;28;20659;-71
2022/09/25 11:17:04;;;;;;;6.72;4.78;;;;;;;14.56;100.00;98301.38;5034641;28;20045;-71
2022/09/25 11:19:30;;;;;;;6.07;4.05;;;;;;;14.54;100.00;98300.81;5042323;28;20127;-71
2022/09/25 11:22:08;;;;;;;5.40;3.70;;;;;;;14.46;100.00;98299.25;5039899;28;20119;-71
2022/09/25 11:24:50;;;;;;;7.40;4.30;;;;;;;14.39;100.00;98276.78;5039413;28;20041;-71
2022/09/25 11:27:30;;;;;;;5.43;3.75;;;;;;;14.76;100.00;98300.94;5050033;28;20037;-70
2022/09/25 11:30:07;;;;;;;;;;;;;;;14.83;100.00;98304.38;5039278;28;20029;-72
2022/09/25 11:32:39;;;;;;;5.60;3.85;;;;;;;15.15;100.00;98305.75;5039285;28;19932;-70
2022/09/25 11:35:44;;;;;;;7.78;3.40;;;;;;;15.65;100.00;98297.59;5029821;28;20023;-70
2022/09/25 11:41:10;;;;;;;5.32;3.58;;;;;;;16.16;100.00;98284.72;5027201;28;20029;-70
2022/09/25 11:41:26;;;;;;;7.15;3.58;;;;;;;16.92;100.00;98297.69;5023409;28;20113;-71
2022/09/25 11:44:08;;;;;;;9.40;3.08;;;;;;;17.31;96.35;98267.47;5035378;28;20029;-71
2022/09/25 11:47:00;;;;;;;3.50;2.58;;;;;;;17.37;95.89;98280.09;5026397;28;20588;-70
2022/09/25 11:49:33;;;;;;;3.42;2.30;;;;;;;17.33;96.25;98265.28;5032898;28;20415;-71
2022/09/25 11:52:17;;;;;;;7.78;2.53;;;;;;;17.09;99.86;98278.47;5025615;28;20556;-71